Aérodrome :
LOGIN :

S'inscrire | Disclaimer

   EN    FR    IT 

 










Légende :    VFR   VFR Marginal   IFR   IFR Intensif   IFR Très Intensif
Visi : 
Plafond : 
>= 8 km
>= 3000ft
5 à 8 km
1000 à 3000 ft
1500m à 5 km
500 à 1000 ft
800 à 1500m
200 à 500 ft
< 800m
< 200 ft
Symboles :   Orages  Brouillard  Fortes neiges  Fortes précipitations  Vent > 20 kt
SIGMETs :   Divers  Orages  Givrage  Turbulence  Onde Orograph.  Cendres Volcan.







- Altitude de l'aérodrome : 1213 ft
- Code IATA : SCQ


LEST - Santiago de Compostela

DERNIER METAR :
  • 172100Z 10007KT CAVOK 10/07 Q1022 NOSIG

METARs EXPIRÉS :
  • 172030Z 11004KT 080V140 CAVOK 10/08 Q1022 NOSIG
  • 172000Z 11005KT 080V150 CAVOK 11/09 Q1021 NOSIG
  • 171930Z VRB01KT CAVOK 12/09 Q1022 NOSIG
  • 171900Z VRB01KT CAVOK 13/10 Q1021 NOSIG
  • 171830Z 00000KT CAVOK 13/10 Q1021 NOSIG

TAF TAF LEST
Valide du 17 à 18h jusqu'au 18 à 18h UTC


171700Z 1718/1818 VRB05KT CAVOK TX17/1815Z TN05/1806Z
PROB30
TEMPO 1721/1723 4000 BR
TEMPO 1723/1808 3000 BR
PROB40
TEMPO 1723/1807 1500 BCFG BKN002
PROB30
TEMPO 1802/1807 0500 FG VV001
Pas de NOTAMs connus pour ce terrain.



MET'MAP, la Météo Aéronautique d'un coup d'oeil ! - Copyright ORBIFLY Décembre 2007 - Disclaimer

ORBIFLY MET'MAP TEAM :

Programmation & Développement : Alexandra Zaïnal
Conception & Développement : Baudouin d'Aumeries
Co-Programmation & Développement : Marc-Olivier Méhu
Soutien technique & logistique : Manuel Goepfert

Contact : metmap@orbifly.com




SOURCES & CREDITS :

   NOAA